createdAt,value
2022-09-12T00:01:56.204Z,12.93
2022-09-12T00:04:25.042Z,13.23
2022-09-12T00:06:52.439Z,12.98
2022-09-12T00:09:19.842Z,13.90
2022-09-12T00:11:47.808Z,12.75
2022-09-12T00:14:16.295Z,14.13
2022-09-12T00:16:44.141Z,13.10
2022-09-12T00:19:12.111Z,14.27
2022-09-12T00:21:41.652Z,14.57
2022-09-12T00:24:09.114Z,15.50
2022-09-12T00:26:36.637Z,15.10
2022-09-12T00:29:04.487Z,15.05
2022-09-12T00:31:32.165Z,13.20
2022-09-12T00:34:01.509Z,13.65
2022-09-12T00:36:29.514Z,14.00
2022-09-12T00:38:58.769Z,14.73
2022-09-12T00:41:27.048Z,14.60
2022-09-12T00:43:55.211Z,14.52
2022-09-12T00:46:33.427Z,13.75
2022-09-12T00:49:02.649Z,14.23
2022-09-12T00:51:31.447Z,14.80
2022-09-12T00:54:01.065Z,15.23
2022-09-12T00:56:28.944Z,15.70
2022-09-12T00:58:58.747Z,15.95
2022-09-12T01:01:30.456Z,14.98
2022-09-12T01:03:59.800Z,14.15
2022-09-12T01:06:28.669Z,14.25
2022-09-12T01:08:56.352Z,16.15
2022-09-12T01:11:25.184Z,16.13
2022-09-12T01:13:52.579Z,15.55
2022-09-12T01:16:20.086Z,13.80
2022-09-12T01:18:52.802Z,15.85
2022-09-12T01:21:26.337Z,17.10
2022-09-12T01:24:09.406Z,16.88
2022-09-12T01:26:49.854Z,17.98
2022-09-12T01:29:27.354Z,16.10
2022-09-12T01:32:00.869Z,16.75
2022-09-12T01:34:30.942Z,15.70
2022-09-12T01:37:02.074Z,14.77
2022-09-12T01:39:31.132Z,14.82
2022-09-12T01:42:06.777Z,13.65
2022-09-12T01:44:38.207Z,16.00
2022-09-12T01:47:10.833Z,14.60
2022-09-12T01:49:41.271Z,15.07
2022-09-12T01:52:12.752Z,15.82
2022-09-12T01:54:42.621Z,14.50
2022-09-12T01:57:13.683Z,15.27
2022-09-12T01:59:44.491Z,14.38
2022-09-12T02:02:15.224Z,15.65
2022-09-12T02:04:47.763Z,15.13
2022-09-12T02:07:17.231Z,14.20
2022-09-12T02:09:46.339Z,13.98
2022-09-12T02:12:16.305Z,15.57
2022-09-12T02:14:46.847Z,15.02
2022-09-12T02:17:17.105Z,14.18
2022-09-12T02:19:46.473Z,14.18
2022-09-12T02:22:16.590Z,15.25
2022-09-12T02:24:45.387Z,15.85
2022-09-12T02:27:15.608Z,15.65
2022-09-12T02:29:43.361Z,14.38
2022-09-12T02:32:13.560Z,13.65
2022-09-12T02:34:48.693Z,13.15
2022-09-12T02:37:19.604Z,14.07
2022-09-12T02:39:46.967Z,14.75
2022-09-12T02:42:14.443Z,15.63
2022-09-12T02:44:42.136Z,14.35
2022-09-12T02:47:10.869Z,13.77
2022-09-12T02:49:38.350Z,15.38
2022-09-12T02:52:07.293Z,15.73
2022-09-12T02:54:34.699Z,16.10
2022-09-12T02:57:02.095Z,16.00
2022-09-12T02:59:29.613Z,15.25
2022-09-12T03:02:04.074Z,15.88
2022-09-12T03:04:40.028Z,14.88
2022-09-12T03:07:13.353Z,14.93
2022-09-12T03:09:44.468Z,14.98
2022-09-12T03:12:18.088Z,13.95
2022-09-12T03:15:07.173Z,13.90
2022-09-12T03:17:40.539Z,16.25
2022-09-12T03:20:10.919Z,14.68
2022-09-12T03:22:47.129Z,14.93
2022-09-12T03:25:21.927Z,14.93
2022-09-12T03:27:53.921Z,14.43
2022-09-12T03:30:21.389Z,14.13
2022-09-12T03:32:50.163Z,13.80
2022-09-12T03:35:22.833Z,14.40
2022-09-12T03:37:53.007Z,14.18
2022-09-12T03:40:20.671Z,13.95
2022-09-12T03:42:48.182Z,15.32
2022-09-12T03:45:16.484Z,15.80
2022-09-12T03:47:43.881Z,14.23
2022-09-12T03:50:11.389Z,15.90
2022-09-12T03:52:38.747Z,15.55
2022-09-12T03:55:08.181Z,15.73
2022-09-12T03:57:35.603Z,14.48
2022-09-12T04:00:03.165Z,14.75
2022-09-12T04:02:30.570Z,15.40
2022-09-12T04:04:57.994Z,13.60
2022-09-12T04:07:25.501Z,14.57
2022-09-12T04:09:53.238Z,14.32
2022-09-12T04:12:22.230Z,15.43
2022-09-12T04:14:50.207Z,15.10
2022-09-12T04:17:17.649Z,16.33
2022-09-12T04:19:45.014Z,14.32
2022-09-12T04:22:12.402Z,14.00
2022-09-12T04:24:39.762Z,14.60
2022-09-12T04:27:08.218Z,15.88
2022-09-12T04:29:36.950Z,14.63
2022-09-12T04:32:04.632Z,13.85
2022-09-12T04:34:32.386Z,15.70
2022-09-12T04:36:59.905Z,15.70
2022-09-12T04:39:27.427Z,16.83
2022-09-12T04:41:54.806Z,14.98
2022-09-12T04:44:22.189Z,15.25
2022-09-12T04:46:50.931Z,16.48
2022-09-12T04:49:19.278Z,16.98
2022-09-12T04:51:47.025Z,14.85
2022-09-12T04:54:16.163Z,15.68
2022-09-12T04:56:44.400Z,16.95
2022-09-12T04:59:12.345Z,16.30
2022-09-12T05:01:40.002Z,19.23
2022-09-12T05:04:08.831Z,17.77
2022-09-12T05:06:36.977Z,17.13
2022-09-12T05:09:05.765Z,16.55
2022-09-12T05:12:00.084Z,16.92
2022-09-12T05:14:21.983Z,16.20
2022-09-12T05:16:49.882Z,17.30
2022-09-12T05:19:18.830Z,16.92
2022-09-12T05:21:46.341Z,17.63
2022-09-12T05:24:13.704Z,19.35
2022-09-12T05:26:41.122Z,18.58
2022-09-12T05:29:08.477Z,16.23
2022-09-12T05:31:35.883Z,17.35
2022-09-12T05:34:06.943Z,18.45
2022-09-12T05:36:36.902Z,17.15
2022-09-12T05:39:04.854Z,21.90
2022-09-12T05:41:33.769Z,22.45
2022-09-12T05:44:02.357Z,22.60
2022-09-12T05:46:30.748Z,22.10
2022-09-12T05:48:58.356Z,26.88
2022-09-12T05:51:26.844Z,25.83
2022-09-12T05:53:56.594Z,25.55
2022-09-12T05:56:25.204Z,28.88
2022-09-12T05:58:54.147Z,32.88
2022-09-12T06:01:21.617Z,32.75
2022-09-12T06:03:50.229Z,34.58
2022-09-12T06:06:18.621Z,36.10
2022-09-12T06:08:47.455Z,38.08
2022-09-12T06:11:17.636Z,36.75
2022-09-12T06:13:45.300Z,35.50
2022-09-12T06:16:13.310Z,36.97
2022-09-12T06:18:41.432Z,34.45
2022-09-12T06:21:09.542Z,35.50
2022-09-12T06:23:37.307Z,36.13
2022-09-12T06:26:05.158Z,34.00
2022-09-12T06:28:35.556Z,34.08
2022-09-12T06:31:05.327Z,35.97
2022-09-12T06:33:33.381Z,34.70
2022-09-12T06:36:08.970Z,33.80
2022-09-12T06:38:39.264Z,33.33
2022-09-12T06:41:07.349Z,33.65
2022-09-12T06:43:36.984Z,34.33
2022-09-12T06:46:04.942Z,32.30
2022-09-12T06:48:32.727Z,34.75
2022-09-12T06:51:00.894Z,33.45
2022-09-12T06:53:28.990Z,33.30
2022-09-12T06:55:57.096Z,32.38
2022-09-12T06:58:24.560Z,33.08
2022-09-12T07:00:57.247Z,32.63
2022-09-12T07:03:26.435Z,33.80
2022-09-12T07:05:53.872Z,31.20
2022-09-12T07:08:21.273Z,31.38
2022-09-12T07:10:48.665Z,32.13
2022-09-12T07:13:16.082Z,31.33
2022-09-12T07:15:43.423Z,32.65
2022-09-12T07:18:12.175Z,31.45
2022-09-12T07:20:39.726Z,28.55
2022-09-12T07:23:07.167Z,32.75
2022-09-12T07:25:34.517Z,29.30
2022-09-12T07:28:02.344Z,30.30
2022-09-12T07:30:29.851Z,31.45
2022-09-12T07:32:57.342Z,28.10
2022-09-12T07:35:26.128Z,29.00
2022-09-12T07:37:53.860Z,29.95
2022-09-12T07:40:21.738Z,28.20
2022-09-12T07:42:49.391Z,28.92
2022-09-12T07:45:16.864Z,28.50
2022-09-12T07:47:44.281Z,25.85
2022-09-12T07:50:11.821Z,28.73
2022-09-12T07:52:40.575Z,28.15
2022-09-12T07:55:08.247Z,26.70
2022-09-12T07:57:35.610Z,25.13
2022-09-12T08:00:03.825Z,26.15
2022-09-12T08:02:31.233Z,27.60
2022-09-12T08:04:58.624Z,27.23
2022-09-12T08:07:25.996Z,27.63
2022-09-12T08:09:54.898Z,28.55
2022-09-12T08:12:22.233Z,27.70
2022-09-12T08:14:49.603Z,25.60
2022-09-12T08:17:17.007Z,25.73
2022-09-12T08:19:44.900Z,27.52
2022-09-12T08:22:12.339Z,25.98
2022-09-12T08:24:40.394Z,24.63
2022-09-12T08:27:09.129Z,26.05
2022-09-12T08:29:36.499Z,24.83
2022-09-12T08:32:04.184Z,24.55
2022-09-12T08:34:31.584Z,23.35
2022-09-12T08:36:59.149Z,25.10
2022-09-12T08:39:26.569Z,23.40
2022-09-12T08:41:59.073Z,24.33
2022-09-12T08:44:34.940Z,25.33
2022-09-12T08:47:23.078Z,24.73
2022-09-12T08:49:54.411Z,24.52
2022-09-12T08:52:24.697Z,25.05
2022-09-12T08:54:52.224Z,25.08
2022-09-12T08:57:20.008Z,24.05
2022-09-12T08:59:49.340Z,24.90
2022-09-12T09:02:25.690Z,24.33
2022-09-12T09:04:57.116Z,24.00
2022-09-12T09:07:34.522Z,25.05
2022-09-12T09:10:07.842Z,23.38
2022-09-12T09:12:39.052Z,22.92
2022-09-12T09:15:12.736Z,24.20
2022-09-12T09:17:41.568Z,23.23
2022-09-12T09:20:15.163Z,22.17
2022-09-12T09:22:44.391Z,22.52
2022-09-12T09:25:15.330Z,22.17
2022-09-12T09:27:44.099Z,21.83
2022-09-12T09:30:16.409Z,21.77
2022-09-12T09:32:44.955Z,21.95
2022-09-12T09:35:15.528Z,20.65
2022-09-12T09:37:43.677Z,20.42
2022-09-12T09:40:17.967Z,21.50
2022-09-12T09:42:46.874Z,20.15
2022-09-12T09:45:16.802Z,19.52
2022-09-12T09:47:45.925Z,19.65
2022-09-12T09:50:16.535Z,18.85
2022-09-12T09:52:44.300Z,18.10
2022-09-12T09:55:16.101Z,19.25
2022-09-12T09:57:44.634Z,17.13
2022-09-12T10:00:27.004Z,18.02
2022-09-12T10:03:02.786Z,18.65
2022-09-12T10:05:31.331Z,18.65
2022-09-12T10:07:58.786Z,17.15
2022-09-12T10:10:26.417Z,15.82
2022-09-12T10:13:06.889Z,16.30
2022-09-12T10:15:35.808Z,14.73
2022-09-12T10:18:04.293Z,15.23
2022-09-12T10:20:32.806Z,15.57
2022-09-12T10:23:01.132Z,15.25
2022-09-12T10:25:28.949Z,14.35
2022-09-12T10:27:57.984Z,14.68
2022-09-12T10:30:28.155Z,14.68
2022-09-12T10:32:58.888Z,13.73
2022-09-12T10:35:30.402Z,13.45
2022-09-12T10:37:59.407Z,13.27
2022-09-12T10:40:28.000Z,12.55
2022-09-12T10:42:56.583Z,13.80
2022-09-12T10:45:28.939Z,13.65
2022-09-12T10:48:02.113Z,12.52
2022-09-12T10:50:32.598Z,12.27
2022-09-12T10:53:14.342Z,12.02
2022-09-12T10:55:43.515Z,12.68
2022-09-12T10:58:18.773Z,11.48
2022-09-12T11:00:48.823Z,12.15
2022-09-12T11:03:23.323Z,11.80
2022-09-12T11:05:53.490Z,11.48
2022-09-12T11:08:27.793Z,10.93
2022-09-12T11:11:00.756Z,10.43
2022-09-12T11:13:35.695Z,10.18
2022-09-12T11:16:09.864Z,9.10
2022-09-12T11:18:46.433Z,8.70
2022-09-12T11:21:18.267Z,7.80
2022-09-12T11:23:59.192Z,7.78
2022-09-12T11:29:02.706Z,8.18
2022-09-12T11:31:42.148Z,6.43
2022-09-12T11:34:11.792Z,5.85
2022-09-12T11:36:43.409Z,5.63
2022-09-12T11:39:14.464Z,7.20
2022-09-12T11:41:42.938Z,6.35
2022-09-12T11:44:15.518Z,7.15
2022-09-12T11:46:43.633Z,6.95
2022-09-12T11:49:23.399Z,7.80
2022-09-12T11:51:53.090Z,7.30
2022-09-12T11:54:23.869Z,6.35
2022-09-12T11:59:31.765Z,7.07
2022-09-12T12:02:00.181Z,7.63
2022-09-12T12:04:33.061Z,7.05
2022-09-12T12:07:04.020Z,7.63
2022-09-12T12:09:31.692Z,6.63
2022-09-12T12:12:01.788Z,5.55
2022-09-12T12:14:32.923Z,6.15
2022-09-12T12:17:00.556Z,5.95
2022-09-12T12:19:36.620Z,5.70
2022-09-12T12:22:08.660Z,6.07
2022-09-12T12:24:37.657Z,5.55
2022-09-12T12:27:06.185Z,5.80
2022-09-12T12:29:43.858Z,5.80
2022-09-12T12:32:21.793Z,5.15
2022-09-12T12:34:50.507Z,5.50
2022-09-12T12:37:39.913Z,5.38
2022-09-12T12:40:09.878Z,5.03
2022-09-12T12:43:02.723Z,5.20
2022-09-12T12:45:48.959Z,4.80
2022-09-12T12:48:17.635Z,4.40
2022-09-12T12:50:46.325Z,4.40
2022-09-12T12:53:19.555Z,4.22
2022-09-12T12:55:48.107Z,3.78
2022-09-12T12:58:25.562Z,4.75
2022-09-12T13:01:04.107Z,3.90
2022-09-12T13:03:32.565Z,3.97
2022-09-12T13:06:02.810Z,4.10
2022-09-12T13:08:31.622Z,4.00
2022-09-12T13:11:01.322Z,4.53
2022-09-12T13:13:32.176Z,4.10
2022-09-12T13:15:59.683Z,3.88
2022-09-12T13:18:29.198Z,4.00
2022-09-12T13:21:00.821Z,4.30
2022-09-12T13:23:31.100Z,4.07
2022-09-12T13:25:59.289Z,4.47
2022-09-12T13:28:27.655Z,3.63
2022-09-12T13:31:02.913Z,3.72
2022-09-12T13:33:38.066Z,3.75
2022-09-12T13:36:26.429Z,3.72
2022-09-12T13:38:59.200Z,3.33
2022-09-12T13:41:37.189Z,4.60
2022-09-12T13:44:05.120Z,4.70
2022-09-12T13:46:33.911Z,4.43
2022-09-12T13:49:02.907Z,4.30
2022-09-12T13:51:32.002Z,4.32
2022-09-12T13:54:03.203Z,4.20
2022-09-12T13:56:30.634Z,3.28
2022-09-12T13:58:58.745Z,4.30
2022-09-12T14:01:37.539Z,3.50
2022-09-12T14:04:31.970Z,3.70
2022-09-12T14:07:00.932Z,4.88
2022-09-12T14:09:32.041Z,4.75
2022-09-12T14:11:59.910Z,4.15
2022-09-12T14:14:31.445Z,4.22
2022-09-12T14:16:58.909Z,4.22
2022-09-12T14:19:27.286Z,3.80
2022-09-12T14:21:55.212Z,4.35
2022-09-12T14:24:24.154Z,4.03
2022-09-12T14:26:56.567Z,3.22
2022-09-12T14:29:25.129Z,3.78
2022-09-12T14:32:02.732Z,3.72
2022-09-12T14:34:30.854Z,4.15
2022-09-12T14:36:58.683Z,4.88
2022-09-12T14:39:28.853Z,4.10
2022-09-12T14:42:08.209Z,4.60
2022-09-12T14:44:36.038Z,4.13
2022-09-12T14:47:12.272Z,3.70
2022-09-12T14:49:39.709Z,3.97
2022-09-12T14:52:09.164Z,4.65
2022-09-12T14:54:38.630Z,3.83
2022-09-12T14:57:08.118Z,3.78
2022-09-12T14:59:39.538Z,3.78
2022-09-12T15:02:19.897Z,4.90
2022-09-12T15:04:48.870Z,3.80
2022-09-12T15:07:16.539Z,4.10
2022-09-12T15:09:47.198Z,3.97
2022-09-12T15:12:16.372Z,4.20
2022-09-12T15:14:43.768Z,3.97
2022-09-12T15:17:11.172Z,4.30
2022-09-12T15:19:38.576Z,4.07
2022-09-12T15:22:06.018Z,3.97
2022-09-12T15:24:33.404Z,3.92
2022-09-12T15:27:00.780Z,4.13
2022-09-12T15:29:29.517Z,3.97
2022-09-12T15:31:56.952Z,3.70
2022-09-12T15:34:24.330Z,3.05
2022-09-12T15:36:51.749Z,2.90
2022-09-12T15:39:19.149Z,3.00
2022-09-12T15:41:48.566Z,3.25
2022-09-12T15:44:15.985Z,3.50
2022-09-12T15:46:44.944Z,3.58
2022-09-12T15:49:12.374Z,3.65
2022-09-12T15:51:40.054Z,2.97
2022-09-12T15:54:07.489Z,3.03
2022-09-12T15:56:34.901Z,3.45
2022-09-12T15:59:02.287Z,3.50
2022-09-12T16:01:30.078Z,3.58
2022-09-12T16:03:59.099Z,3.60
2022-09-12T16:06:27.578Z,3.17
2022-09-12T16:08:55.196Z,3.35
2022-09-12T16:11:23.932Z,3.33
2022-09-12T16:13:52.453Z,3.42
2022-09-12T16:16:19.913Z,3.05
2022-09-12T16:18:47.439Z,2.65
2022-09-12T16:21:16.301Z,3.17
2022-09-12T16:23:43.846Z,3.08
2022-09-12T16:26:11.412Z,3.35
2022-09-12T16:28:38.985Z,3.30
2022-09-12T16:31:07.425Z,3.90
2022-09-12T16:33:35.222Z,3.53
2022-09-12T16:36:03.217Z,3.22
2022-09-12T16:38:32.207Z,3.83
2022-09-12T16:41:03.108Z,3.53
2022-09-12T16:43:30.489Z,3.70
2022-09-12T16:46:01.414Z,2.92
2022-09-12T16:48:28.835Z,3.15
2022-09-12T16:51:00.607Z,3.30
2022-09-12T16:53:30.368Z,3.20
2022-09-12T16:55:59.078Z,3.83
2022-09-12T16:58:26.801Z,3.08
2022-09-12T17:01:00.218Z,3.33
2022-09-12T17:03:27.613Z,3.55
2022-09-12T17:05:58.623Z,2.92
2022-09-12T17:08:26.331Z,3.40
2022-09-12T17:10:53.745Z,3.65
2022-09-12T17:13:22.482Z,3.30
2022-09-12T17:15:49.889Z,3.05
2022-09-12T17:18:17.263Z,3.08
2022-09-12T17:20:44.632Z,2.75
2022-09-12T17:23:11.995Z,3.45
2022-09-12T17:25:39.419Z,3.60
2022-09-12T17:28:07.482Z,3.13
2022-09-12T17:30:36.396Z,3.03
2022-09-12T17:33:03.878Z,3.58
2022-09-12T17:35:34.457Z,3.38
2022-09-12T17:38:02.439Z,3.47
2022-09-12T17:40:55.685Z,3.92
2022-09-12T17:43:17.284Z,3.33
2022-09-12T17:45:46.252Z,3.88
2022-09-12T17:48:13.626Z,3.40
2022-09-12T17:50:41.481Z,3.33
2022-09-12T17:53:09.676Z,3.30
2022-09-12T17:55:37.119Z,3.38
2022-09-12T17:58:04.561Z,4.35
2022-09-12T18:00:45.956Z,3.45
2022-09-12T18:03:14.960Z,3.78
2022-09-12T18:05:48.389Z,3.50
2022-09-12T18:08:16.103Z,3.80
2022-09-12T18:10:43.502Z,3.45
2022-09-12T18:13:10.909Z,3.90
2022-09-12T18:15:41.228Z,3.65
2022-09-12T18:18:08.701Z,3.80
2022-09-12T18:20:37.463Z,3.47
2022-09-12T18:23:04.920Z,3.85
2022-09-12T18:25:32.263Z,4.10
2022-09-12T18:27:59.634Z,3.60
2022-09-12T18:30:27.191Z,4.20
2022-09-12T18:32:54.623Z,3.78
2022-09-12T18:35:21.996Z,3.85
2022-09-12T18:37:50.767Z,3.92
2022-09-12T18:40:18.426Z,3.90
2022-09-12T18:42:45.872Z,4.32
2022-09-12T18:45:13.258Z,3.75
2022-09-12T18:47:41.869Z,3.90
2022-09-12T18:50:09.610Z,4.20
2022-09-12T18:52:36.962Z,3.78
2022-09-12T18:55:06.234Z,4.20
2022-09-12T18:57:35.033Z,3.65
2022-09-12T19:00:04.065Z,4.32
2022-09-12T19:02:31.865Z,4.13
2022-09-12T19:04:59.219Z,4.10
2022-09-12T19:07:26.657Z,3.85
2022-09-12T19:09:54.102Z,4.07
2022-09-12T19:12:22.847Z,4.40
2022-09-12T19:14:50.259Z,4.57
2022-09-12T19:17:19.456Z,4.60
2022-09-12T19:19:47.066Z,4.43
2022-09-12T19:22:14.423Z,4.43
2022-09-12T19:24:41.850Z,4.20
2022-09-12T19:27:09.249Z,4.53
2022-09-12T19:29:37.975Z,4.10
2022-09-12T19:32:05.536Z,4.82
2022-09-12T19:34:32.914Z,4.43
2022-09-12T19:37:00.339Z,4.85
2022-09-12T19:39:27.734Z,4.43
2022-09-12T19:41:55.085Z,4.40
2022-09-12T19:44:23.612Z,4.97
2022-09-12T19:46:52.621Z,4.97
2022-09-12T19:49:20.015Z,4.28
2022-09-12T19:51:47.386Z,4.63
2022-09-12T19:54:14.757Z,4.28
2022-09-12T19:56:42.219Z,4.53
2022-09-12T19:59:09.748Z,4.70
2022-09-12T20:01:37.931Z,4.97
2022-09-12T20:04:07.456Z,4.78
2022-09-12T20:06:34.877Z,4.82
2022-09-12T20:09:02.284Z,5.13
2022-09-12T20:11:29.650Z,5.20
2022-09-12T20:13:57.028Z,5.63
2022-09-12T20:16:25.614Z,5.00
2022-09-12T20:18:54.225Z,4.82
2022-09-12T20:21:25.047Z,5.30
2022-09-12T20:23:52.560Z,5.18
2022-09-12T20:26:20.731Z,5.03
2022-09-12T20:28:48.313Z,5.47
2022-09-12T20:31:16.628Z,5.75
2022-09-12T20:33:45.823Z,5.28
2022-09-12T20:36:16.220Z,5.50
2022-09-12T20:38:47.581Z,5.78
2022-09-12T20:41:15.045Z,5.57
2022-09-12T20:43:42.443Z,5.65
2022-09-12T20:46:10.895Z,5.50
2022-09-12T20:48:38.748Z,5.45
2022-09-12T20:51:06.276Z,5.38
2022-09-12T20:53:35.228Z,6.00
2022-09-12T20:56:05.287Z,5.40
2022-09-12T20:58:32.702Z,6.00
2022-09-12T21:01:00.537Z,5.40
2022-09-12T21:03:27.909Z,6.03
2022-09-12T21:05:55.291Z,5.82
2022-09-12T21:08:22.704Z,5.85
2022-09-12T21:10:50.086Z,5.60
2022-09-12T21:13:18.844Z,6.20
2022-09-12T21:15:46.231Z,6.00
2022-09-12T21:18:13.635Z,6.10
2022-09-12T21:20:41.006Z,5.47
2022-09-12T21:23:08.376Z,6.00
2022-09-12T21:25:35.726Z,5.82
2022-09-12T21:28:03.301Z,6.20
2022-09-12T21:30:32.073Z,6.78
2022-09-12T21:32:59.463Z,6.63
2022-09-12T21:35:26.898Z,7.53
2022-09-12T21:37:54.322Z,7.13
2022-09-12T21:40:21.776Z,6.88
2022-09-12T21:42:49.391Z,7.90
2022-09-12T21:45:16.883Z,7.32
2022-09-12T21:47:45.611Z,6.60
2022-09-12T21:50:13.411Z,7.07
2022-09-12T21:52:40.755Z,7.20
2022-09-12T21:55:08.660Z,6.47
2022-09-12T21:57:36.359Z,7.13
2022-09-12T22:00:05.417Z,7.43
2022-09-12T22:02:32.795Z,7.22
2022-09-12T22:05:01.531Z,7.47
2022-09-12T22:07:29.535Z,6.60
2022-09-12T22:09:57.104Z,7.15
2022-09-12T22:12:27.364Z,6.65
2022-09-12T22:14:55.267Z,6.77
2022-09-12T22:17:22.733Z,6.95
2022-09-12T22:19:50.127Z,7.22
2022-09-12T22:22:36.654Z,7.97
2022-09-12T22:25:04.183Z,7.70
2022-09-12T22:27:31.555Z,7.50
2022-09-12T22:29:58.952Z,8.18
2022-09-12T22:32:26.362Z,8.27
2022-09-12T22:34:53.748Z,8.27
2022-09-12T22:37:22.736Z,8.15
2022-09-12T22:39:50.146Z,8.18
2022-09-12T22:42:17.540Z,8.43
2022-09-12T22:44:44.910Z,7.60
2022-09-12T22:47:12.268Z,8.32
2022-09-12T22:49:39.650Z,8.90
2022-09-12T22:52:07.036Z,8.65
2022-09-12T22:54:36.973Z,9.05
2022-09-12T22:57:04.484Z,9.45
2022-09-12T22:59:31.867Z,10.80
2022-09-12T23:01:59.221Z,10.48
2022-09-12T23:04:26.661Z,11.38
2022-09-12T23:06:54.058Z,12.27
2022-09-12T23:09:21.462Z,12.35
2022-09-12T23:11:50.658Z,12.50
2022-09-12T23:14:18.373Z,12.30
2022-09-12T23:16:45.743Z,12.70
2022-09-12T23:19:13.132Z,13.32
2022-09-12T23:21:40.524Z,12.00
2022-09-12T23:24:07.937Z,12.98
2022-09-12T23:26:35.385Z,12.90
2022-09-12T23:29:05.575Z,11.82
2022-09-12T23:31:33.627Z,12.10
2022-09-12T23:34:02.752Z,13.07
2022-09-12T23:36:30.231Z,13.55
2022-09-12T23:38:58.505Z,13.13
2022-09-12T23:41:26.017Z,13.68
2022-09-12T23:43:53.654Z,14.77
2022-09-12T23:46:22.514Z,14.32
2022-09-12T23:48:49.972Z,14.85
2022-09-12T23:51:17.414Z,14.68
2022-09-12T23:53:44.762Z,13.27
2022-09-12T23:56:12.247Z,15.43
2022-09-12T23:58:39.609Z,12.60
